sensor_id;sensor_type;location;lat;lon;timestamp;P1;durP1;ratioP1;P2;durP2;ratioP2
40635;SDS011;26642;55.766;37.828;2023-08-08T00:01:43;5.50;;;3.47;;
40635;SDS011;26642;55.766;37.828;2023-08-08T00:04:10;4.80;;;3.38;;
40635;SDS011;26642;55.766;37.828;2023-08-08T00:06:36;6.05;;;3.47;;
40635;SDS011;26642;55.766;37.828;2023-08-08T00:09:03;4.07;;;3.67;;
40635;SDS011;26642;55.766;37.828;2023-08-08T00:11:29;6.13;;;3.60;;
40635;SDS011;26642;55.766;37.828;2023-08-08T00:13:56;4.18;;;3.30;;
40635;SDS011;26642;55.766;37.828;2023-08-08T00:16:22;4.60;;;3.38;;
40635;SDS011;26642;55.766;37.828;2023-08-08T00:18:48;6.35;;;3.30;;
40635;SDS011;26642;55.766;37.828;2023-08-08T00:21:16;6.47;;;3.38;;
40635;SDS011;26642;55.766;37.828;2023-08-08T00:23:42;3.10;;;2.80;;
40635;SDS011;26642;55.766;37.828;2023-08-08T00:26:08;4.95;;;3.20;;
40635;SDS011;26642;55.766;37.828;2023-08-08T00:28:34;8.93;;;3.42;;
40635;SDS011;26642;55.766;37.828;2023-08-08T00:31:00;4.78;;;2.92;;
40635;SDS011;26642;55.766;37.828;2023-08-08T00:33:25;4.88;;;3.25;;
40635;SDS011;26642;55.766;37.828;2023-08-08T00:35:52;4.38;;;2.97;;
40635;SDS011;26642;55.766;37.828;2023-08-08T00:38:18;6.80;;;2.88;;
40635;SDS011;26642;55.766;37.828;2023-08-08T00:40:44;7.07;;;3.30;;
40635;SDS011;26642;55.766;37.828;2023-08-08T00:43:10;5.90;;;3.20;;
40635;SDS011;26642;55.766;37.828;2023-08-08T00:45:37;5.68;;;3.03;;
40635;SDS011;26642;55.766;37.828;2023-08-08T00:48:04;5.03;;;2.88;;
40635;SDS011;26642;55.766;37.828;2023-08-08T00:50:31;3.80;;;2.92;;
40635;SDS011;26642;55.766;37.828;2023-08-08T00:52:57;3.33;;;2.90;;
40635;SDS011;26642;55.766;37.828;2023-08-08T00:55:23;5.53;;;3.38;;
40635;SDS011;26642;55.766;37.828;2023-08-08T00:57:49;3.97;;;3.10;;
40635;SDS011;26642;55.766;37.828;2023-08-08T01:00:15;5.80;;;3.40;;
40635;SDS011;26642;55.766;37.828;2023-08-08T01:02:41;4.20;;;2.95;;
40635;SDS011;26642;55.766;37.828;2023-08-08T01:05:07;3.47;;;3.17;;
40635;SDS011;26642;55.766;37.828;2023-08-08T01:07:54;3.88;;;3.05;;
40635;SDS011;26642;55.766;37.828;2023-08-08T01:10:29;3.85;;;3.50;;
40635;SDS011;26642;55.766;37.828;2023-08-08T01:13:00;6.75;;;3.38;;
40635;SDS011;26642;55.766;37.828;2023-08-08T01:15:30;4.00;;;3.00;;
40635;SDS011;26642;55.766;37.828;2023-08-08T01:18:04;3.55;;;3.00;;
40635;SDS011;26642;55.766;37.828;2023-08-08T01:20:32;3.47;;;3.17;;
40635;SDS011;26642;55.766;37.828;2023-08-08T01:23:03;4.88;;;3.40;;
40635;SDS011;26642;55.766;37.828;2023-08-08T01:25:58;3.50;;;3.20;;
40635;SDS011;26642;55.766;37.828;2023-08-08T01:28:25;3.25;;;3.03;;
40635;SDS011;26642;55.766;37.828;2023-08-08T01:30:51;4.80;;;3.50;;
40635;SDS011;26642;55.766;37.828;2023-08-08T01:33:19;3.72;;;3.42;;
40635;SDS011;26642;55.766;37.828;2023-08-08T01:35:46;5.03;;;3.17;;
40635;SDS011;26642;55.766;37.828;2023-08-08T01:38:29;4.22;;;3.30;;
40635;SDS011;26642;55.766;37.828;2023-08-08T01:40:58;7.05;;;3.53;;
40635;SDS011;26642;55.766;37.828;2023-08-08T01:43:25;4.03;;;3.47;;
40635;SDS011;26642;55.766;37.828;2023-08-08T01:45:52;4.40;;;3.22;;
40635;SDS011;26642;55.766;37.828;2023-08-08T01:48:20;4.07;;;3.20;;
40635;SDS011;26642;55.766;37.828;2023-08-08T01:50:46;4.05;;;3.00;;
40635;SDS011;26642;55.766;37.828;2023-08-08T01:53:12;4.13;;;3.13;;
40635;SDS011;26642;55.766;37.828;2023-08-08T01:55:38;4.28;;;3.30;;
40635;SDS011;26642;55.766;37.828;2023-08-08T01:58:04;4.70;;;3.10;;
40635;SDS011;26642;55.766;37.828;2023-08-08T02:00:30;4.05;;;2.90;;
40635;SDS011;26642;55.766;37.828;2023-08-08T02:02:56;4.93;;;3.30;;
40635;SDS011;26642;55.766;37.828;2023-08-08T02:05:22;4.20;;;3.15;;
40635;SDS011;26642;55.766;37.828;2023-08-08T02:07:48;4.75;;;3.38;;
40635;SDS011;26642;55.766;37.828;2023-08-08T02:10:14;4.68;;;3.00;;
40635;SDS011;26642;55.766;37.828;2023-08-08T02:12:40;8.18;;;3.10;;
40635;SDS011;26642;55.766;37.828;2023-08-08T02:15:06;3.20;;;2.90;;
40635;SDS011;26642;55.766;37.828;2023-08-08T02:17:32;4.30;;;3.28;;
40635;SDS011;26642;55.766;37.828;2023-08-08T02:19:58;5.75;;;3.22;;
40635;SDS011;26642;55.766;37.828;2023-08-08T02:22:24;6.50;;;2.85;;
40635;SDS011;26642;55.766;37.828;2023-08-08T02:24:50;3.30;;;3.00;;
40635;SDS011;26642;55.766;37.828;2023-08-08T02:27:17;3.17;;;2.80;;
40635;SDS011;26642;55.766;37.828;2023-08-08T02:29:43;3.17;;;2.90;;
40635;SDS011;26642;55.766;37.828;2023-08-08T02:32:09;3.83;;;3.15;;
40635;SDS011;26642;55.766;37.828;2023-08-08T02:34:34;3.40;;;3.10;;
40635;SDS011;26642;55.766;37.828;2023-08-08T02:37:00;3.80;;;3.00;;
40635;SDS011;26642;55.766;37.828;2023-08-08T02:39:26;3.83;;;2.75;;
40635;SDS011;26642;55.766;37.828;2023-08-08T02:41:52;3.15;;;2.90;;
40635;SDS011;26642;55.766;37.828;2023-08-08T02:44:19;3.53;;;2.85;;
40635;SDS011;26642;55.766;37.828;2023-08-08T02:46:45;3.20;;;2.90;;
40635;SDS011;26642;55.766;37.828;2023-08-08T02:49:11;3.08;;;2.75;;
40635;SDS011;26642;55.766;37.828;2023-08-08T02:51:37;3.13;;;2.80;;
40635;SDS011;26642;55.766;37.828;2023-08-08T02:54:03;4.57;;;3.00;;
40635;SDS011;26642;55.766;37.828;2023-08-08T02:56:31;4.35;;;2.88;;
40635;SDS011;26642;55.766;37.828;2023-08-08T02:58:58;2.97;;;2.70;;
40635;SDS011;26642;55.766;37.828;2023-08-08T03:01:24;3.70;;;3.00;;
40635;SDS011;26642;55.766;37.828;2023-08-08T03:03:50;3.20;;;2.80;;
40635;SDS011;26642;55.766;37.828;2023-08-08T03:06:19;3.28;;;3.00;;
40635;SDS011;26642;55.766;37.828;2023-08-08T03:08:45;7.15;;;3.40;;
40635;SDS011;26642;55.766;37.828;2023-08-08T03:11:11;4.18;;;3.15;;
40635;SDS011;26642;55.766;37.828;2023-08-08T03:13:37;4.05;;;3.22;;
40635;SDS011;26642;55.766;37.828;2023-08-08T03:16:03;3.33;;;2.90;;
40635;SDS011;26642;55.766;37.828;2023-08-08T03:18:30;3.13;;;2.83;;
40635;SDS011;26642;55.766;37.828;2023-08-08T03:20:56;4.32;;;3.33;;
40635;SDS011;26642;55.766;37.828;2023-08-08T03:23:22;4.78;;;3.25;;
40635;SDS011;26642;55.766;37.828;2023-08-08T03:25:49;5.53;;;3.33;;
40635;SDS011;26642;55.766;37.828;2023-08-08T03:28:16;3.30;;;3.10;;
40635;SDS011;26642;55.766;37.828;2023-08-08T03:30:42;6.35;;;3.03;;
40635;SDS011;26642;55.766;37.828;2023-08-08T03:33:10;3.30;;;2.97;;
40635;SDS011;26642;55.766;37.828;2023-08-08T03:35:36;4.53;;;3.20;;
40635;SDS011;26642;55.766;37.828;2023-08-08T03:38:02;6.18;;;3.83;;
40635;SDS011;26642;55.766;37.828;2023-08-08T03:40:28;5.93;;;3.55;;
40635;SDS011;26642;55.766;37.828;2023-08-08T03:42:55;4.63;;;3.20;;
40635;SDS011;26642;55.766;37.828;2023-08-08T03:45:21;3.65;;;3.30;;
40635;SDS011;26642;55.766;37.828;2023-08-08T03:47:47;4.18;;;3.25;;
40635;SDS011;26642;55.766;37.828;2023-08-08T03:50:13;4.00;;;3.30;;
40635;SDS011;26642;55.766;37.828;2023-08-08T03:52:39;8.45;;;3.30;;
40635;SDS011;26642;55.766;37.828;2023-08-08T03:55:09;4.85;;;3.50;;
40635;SDS011;26642;55.766;37.828;2023-08-08T03:57:36;3.35;;;3.05;;
40635;SDS011;26642;55.766;37.828;2023-08-08T04:00:02;5.30;;;3.45;;
40635;SDS011;26642;55.766;37.828;2023-08-08T04:02:38;4.03;;;3.10;;
40635;SDS011;26642;55.766;37.828;2023-08-08T04:05:04;5.90;;;3.45;;
40635;SDS011;26642;55.766;37.828;2023-08-08T04:07:30;3.85;;;3.55;;
40635;SDS011;26642;55.766;37.828;2023-08-08T04:09:57;3.85;;;3.22;;
40635;SDS011;26642;55.766;37.828;2023-08-08T04:12:23;3.95;;;3.25;;
40635;SDS011;26642;55.766;37.828;2023-08-08T04:14:49;3.28;;;3.00;;
40635;SDS011;26642;55.766;37.828;2023-08-08T04:17:15;3.55;;;3.20;;
40635;SDS011;26642;55.766;37.828;2023-08-08T04:19:41;5.00;;;3.75;;
40635;SDS011;26642;55.766;37.828;2023-08-08T04:22:07;4.10;;;3.70;;
40635;SDS011;26642;55.766;37.828;2023-08-08T04:24:33;4.85;;;3.50;;
40635;SDS011;26642;55.766;37.828;2023-08-08T04:26:59;5.40;;;3.33;;
40635;SDS011;26642;55.766;37.828;2023-08-08T04:29:25;4.72;;;3.85;;
40635;SDS011;26642;55.766;37.828;2023-08-08T04:31:51;4.60;;;3.28;;
40635;SDS011;26642;55.766;37.828;2023-08-08T04:34:17;5.55;;;3.50;;
40635;SDS011;26642;55.766;37.828;2023-08-08T04:36:43;4.70;;;3.75;;
40635;SDS011;26642;55.766;37.828;2023-08-08T04:39:09;4.40;;;3.70;;
40635;SDS011;26642;55.766;37.828;2023-08-08T04:41:35;9.27;;;3.92;;
40635;SDS011;26642;55.766;37.828;2023-08-08T04:44:00;4.45;;;3.53;;
40635;SDS011;26642;55.766;37.828;2023-08-08T04:46:26;4.05;;;3.60;;
40635;SDS011;26642;55.766;37.828;2023-08-08T04:48:52;4.40;;;3.55;;
40635;SDS011;26642;55.766;37.828;2023-08-08T04:51:18;4.65;;;3.50;;
40635;SDS011;26642;55.766;37.828;2023-08-08T04:53:44;4.85;;;3.72;;
40635;SDS011;26642;55.766;37.828;2023-08-08T04:56:10;4.82;;;3.60;;
40635;SDS011;26642;55.766;37.828;2023-08-08T04:58:36;4.47;;;3.40;;
40635;SDS011;26642;55.766;37.828;2023-08-08T05:01:02;4.72;;;3.90;;
40635;SDS011;26642;55.766;37.828;2023-08-08T05:03:28;4.25;;;3.88;;
40635;SDS011;26642;55.766;37.828;2023-08-08T05:05:54;5.43;;;3.65;;
40635;SDS011;26642;55.766;37.828;2023-08-08T05:08:20;5.97;;;3.60;;
40635;SDS011;26642;55.766;37.828;2023-08-08T05:10:45;5.85;;;3.70;;
40635;SDS011;26642;55.766;37.828;2023-08-08T05:13:12;6.03;;;3.50;;
40635;SDS011;26642;55.766;37.828;2023-08-08T05:15:38;4.57;;;3.95;;
40635;SDS011;26642;55.766;37.828;2023-08-08T05:18:04;4.68;;;3.90;;
40635;SDS011;26642;55.766;37.828;2023-08-08T05:20:30;6.65;;;4.00;;
40635;SDS011;26642;55.766;37.828;2023-08-08T05:22:56;5.25;;;3.90;;
40635;SDS011;26642;55.766;37.828;2023-08-08T05:25:22;4.88;;;4.10;;
40635;SDS011;26642;55.766;37.828;2023-08-08T05:27:48;5.75;;;3.70;;
40635;SDS011;26642;55.766;37.828;2023-08-08T05:30:15;6.05;;;4.13;;
40635;SDS011;26642;55.766;37.828;2023-08-08T05:32:41;7.70;;;3.90;;
40635;SDS011;26642;55.766;37.828;2023-08-08T05:35:07;4.70;;;3.65;;
40635;SDS011;26642;55.766;37.828;2023-08-08T05:37:33;4.13;;;3.72;;
40635;SDS011;26642;55.766;37.828;2023-08-08T05:39:59;5.13;;;3.85;;
40635;SDS011;26642;55.766;37.828;2023-08-08T05:42:25;5.63;;;3.70;;
40635;SDS011;26642;55.766;37.828;2023-08-08T05:44:51;4.13;;;3.72;;
40635;SDS011;26642;55.766;37.828;2023-08-08T05:47:17;4.13;;;3.72;;
40635;SDS011;26642;55.766;37.828;2023-08-08T05:49:43;5.88;;;4.00;;
40635;SDS011;26642;55.766;37.828;2023-08-08T05:52:09;4.95;;;3.97;;
40635;SDS011;26642;55.766;37.828;2023-08-08T05:54:36;5.13;;;3.92;;
40635;SDS011;26642;55.766;37.828;2023-08-08T05:57:02;4.28;;;3.88;;
40635;SDS011;26642;55.766;37.828;2023-08-08T05:59:28;5.50;;;4.00;;
40635;SDS011;26642;55.766;37.828;2023-08-08T06:01:54;4.30;;;3.85;;
40635;SDS011;26642;55.766;37.828;2023-08-08T06:04:20;4.88;;;3.85;;
40635;SDS011;26642;55.766;37.828;2023-08-08T06:06:46;4.68;;;3.95;;
40635;SDS011;26642;55.766;37.828;2023-08-08T06:09:14;5.78;;;4.20;;
40635;SDS011;26642;55.766;37.828;2023-08-08T06:11:40;5.60;;;4.10;;
40635;SDS011;26642;55.766;37.828;2023-08-08T06:14:06;4.72;;;4.22;;
40635;SDS011;26642;55.766;37.828;2023-08-08T06:16:32;4.03;;;3.63;;
40635;SDS011;26642;55.766;37.828;2023-08-08T06:18:58;5.13;;;4.22;;
40635;SDS011;26642;55.766;37.828;2023-08-08T06:21:24;6.97;;;4.40;;
40635;SDS011;26642;55.766;37.828;2023-08-08T06:23:50;5.07;;;4.28;;
40635;SDS011;26642;55.766;37.828;2023-08-08T06:26:17;4.45;;;3.97;;
40635;SDS011;26642;55.766;37.828;2023-08-08T06:28:43;6.85;;;4.20;;
40635;SDS011;26642;55.766;37.828;2023-08-08T06:31:09;7.07;;;4.15;;
40635;SDS011;26642;55.766;37.828;2023-08-08T06:33:35;6.28;;;4.53;;
40635;SDS011;26642;55.766;37.828;2023-08-08T06:36:01;4.70;;;4.03;;
40635;SDS011;26642;55.766;37.828;2023-08-08T06:38:28;7.03;;;4.32;;
40635;SDS011;26642;55.766;37.828;2023-08-08T06:40:54;5.80;;;4.80;;
40635;SDS011;26642;55.766;37.828;2023-08-08T06:43:21;4.30;;;3.90;;
40635;SDS011;26642;55.766;37.828;2023-08-08T06:45:47;5.55;;;4.13;;
40635;SDS011;26642;55.766;37.828;2023-08-08T06:48:13;8.60;;;4.60;;
40635;SDS011;26642;55.766;37.828;2023-08-08T06:50:39;6.07;;;4.60;;
40635;SDS011;26642;55.766;37.828;2023-08-08T06:53:05;6.90;;;4.57;;
40635;SDS011;26642;55.766;37.828;2023-08-08T06:55:31;7.75;;;4.75;;
40635;SDS011;26642;55.766;37.828;2023-08-08T06:57:57;5.13;;;4.63;;
40635;SDS011;26642;55.766;37.828;2023-08-08T07:00:23;6.88;;;4.70;;
40635;SDS011;26642;55.766;37.828;2023-08-08T07:02:49;5.57;;;4.80;;
40635;SDS011;26642;55.766;37.828;2023-08-08T07:05:15;6.57;;;4.88;;
40635;SDS011;26642;55.766;37.828;2023-08-08T07:07:42;10.18;;;5.57;;
40635;SDS011;26642;55.766;37.828;2023-08-08T07:10:08;6.07;;;4.95;;
40635;SDS011;26642;55.766;37.828;2023-08-08T07:12:34;7.75;;;5.20;;
40635;SDS011;26642;55.766;37.828;2023-08-08T07:15:00;5.15;;;4.68;;
40635;SDS011;26642;55.766;37.828;2023-08-08T07:17:26;6.63;;;4.85;;
40635;SDS011;26642;55.766;37.828;2023-08-08T07:19:52;7.90;;;4.90;;
40635;SDS011;26642;55.766;37.828;2023-08-08T07:22:18;5.40;;;4.90;;
40635;SDS011;26642;55.766;37.828;2023-08-08T07:24:44;7.97;;;4.70;;
40635;SDS011;26642;55.766;37.828;2023-08-08T07:27:10;5.68;;;5.18;;
40635;SDS011;26642;55.766;37.828;2023-08-08T07:29:36;8.48;;;5.00;;
40635;SDS011;26642;55.766;37.828;2023-08-08T07:32:02;7.75;;;5.57;;
40635;SDS011;26642;55.766;37.828;2023-08-08T07:34:30;8.80;;;6.03;;
40635;SDS011;26642;55.766;37.828;2023-08-08T07:36:57;12.52;;;5.20;;
40635;SDS011;26642;55.766;37.828;2023-08-08T07:39:24;5.78;;;5.20;;
40635;SDS011;26642;55.766;37.828;2023-08-08T07:41:50;9.15;;;5.30;;
40635;SDS011;26642;55.766;37.828;2023-08-08T07:44:17;5.60;;;5.10;;
40635;SDS011;26642;55.766;37.828;2023-08-08T07:46:43;11.18;;;5.65;;
40635;SDS011;26642;55.766;37.828;2023-08-08T07:49:09;12.45;;;5.60;;
40635;SDS011;26642;55.766;37.828;2023-08-08T07:51:35;6.68;;;4.88;;
40635;SDS011;26642;55.766;37.828;2023-08-08T07:54:01;7.18;;;5.68;;
40635;SDS011;26642;55.766;37.828;2023-08-08T07:56:27;8.48;;;5.85;;
40635;SDS011;26642;55.766;37.828;2023-08-08T07:58:53;7.07;;;5.60;;
40635;SDS011;26642;55.766;37.828;2023-08-08T08:01:19;8.30;;;5.65;;
40635;SDS011;26642;55.766;37.828;2023-08-08T08:03:45;9.30;;;6.25;;
40635;SDS011;26642;55.766;37.828;2023-08-08T08:06:12;8.80;;;5.93;;
40635;SDS011;26642;55.766;37.828;2023-08-08T08:08:37;7.00;;;5.15;;
40635;SDS011;26642;55.766;37.828;2023-08-08T08:11:04;8.50;;;6.07;;
40635;SDS011;26642;55.766;37.828;2023-08-08T08:13:30;8.50;;;6.05;;
40635;SDS011;26642;55.766;37.828;2023-08-08T08:15:56;8.93;;;6.07;;
40635;SDS011;26642;55.766;37.828;2023-08-08T08:18:21;8.02;;;5.82;;
40635;SDS011;26642;55.766;37.828;2023-08-08T08:20:48;8.70;;;6.15;;
40635;SDS011;26642;55.766;37.828;2023-08-08T08:23:14;9.70;;;5.90;;
40635;SDS011;26642;55.766;37.828;2023-08-08T08:25:40;8.25;;;5.80;;
40635;SDS011;26642;55.766;37.828;2023-08-08T08:28:07;5.70;;;5.13;;
40635;SDS011;26642;55.766;37.828;2023-08-08T08:30:33;5.95;;;5.22;;
40635;SDS011;26642;55.766;37.828;2023-08-08T08:32:59;11.00;;;5.47;;
40635;SDS011;26642;55.766;37.828;2023-08-08T08:35:25;10.15;;;6.20;;
40635;SDS011;26642;55.766;37.828;2023-08-08T08:37:51;7.78;;;5.60;;
40635;SDS011;26642;55.766;37.828;2023-08-08T08:40:17;10.93;;;6.30;;
40635;SDS011;26642;55.766;37.828;2023-08-08T08:42:43;9.27;;;5.93;;
40635;SDS011;26642;55.766;37.828;2023-08-08T08:45:11;6.78;;;5.60;;
40635;SDS011;26642;55.766;37.828;2023-08-08T08:47:39;8.13;;;5.50;;
40635;SDS011;26642;55.766;37.828;2023-08-08T08:50:07;6.85;;;5.47;;
40635;SDS011;26642;55.766;37.828;2023-08-08T08:52:34;8.35;;;5.80;;
40635;SDS011;26642;55.766;37.828;2023-08-08T08:55:00;8.48;;;5.38;;
40635;SDS011;26642;55.766;37.828;2023-08-08T08:57:27;7.60;;;5.60;;
40635;SDS011;26642;55.766;37.828;2023-08-08T08:59:54;7.85;;;6.72;;
40635;SDS011;26642;55.766;37.828;2023-08-08T09:02:20;12.50;;;6.95;;
40635;SDS011;26642;55.766;37.828;2023-08-08T09:04:46;10.65;;;7.35;;
40635;SDS011;26642;55.766;37.828;2023-08-08T09:07:13;7.20;;;5.95;;
40635;SDS011;26642;55.766;37.828;2023-08-08T09:09:42;7.13;;;5.95;;
40635;SDS011;26642;55.766;37.828;2023-08-08T09:12:08;9.55;;;6.57;;
40635;SDS011;26642;55.766;37.828;2023-08-08T09:14:38;8.23;;;6.30;;
40635;SDS011;26642;55.766;37.828;2023-08-08T09:17:15;9.40;;;5.63;;
40635;SDS011;26642;55.766;37.828;2023-08-08T09:22:08;10.07;;;6.75;;
40635;SDS011;26642;55.766;37.828;2023-08-08T09:24:37;12.15;;;6.88;;
40635;SDS011;26642;55.766;37.828;2023-08-08T09:27:07;9.98;;;7.25;;
40635;SDS011;26642;55.766;37.828;2023-08-08T09:29:33;10.20;;;6.70;;
40635;SDS011;26642;55.766;37.828;2023-08-08T09:32:02;8.98;;;6.60;;
40635;SDS011;26642;55.766;37.828;2023-08-08T09:34:29;11.38;;;6.43;;
40635;SDS011;26642;55.766;37.828;2023-08-08T09:36:55;8.05;;;6.60;;
40635;SDS011;26642;55.766;37.828;2023-08-08T09:39:21;10.15;;;6.43;;
40635;SDS011;26642;55.766;37.828;2023-08-08T09:41:47;9.77;;;7.28;;
40635;SDS011;26642;55.766;37.828;2023-08-08T09:44:13;7.70;;;6.60;;
40635;SDS011;26642;55.766;37.828;2023-08-08T09:46:39;8.48;;;6.70;;
40635;SDS011;26642;55.766;37.828;2023-08-08T09:49:06;8.77;;;6.72;;
40635;SDS011;26642;55.766;37.828;2023-08-08T09:51:34;10.55;;;6.80;;
40635;SDS011;26642;55.766;37.828;2023-08-08T09:53:59;10.65;;;5.85;;
40635;SDS011;26642;55.766;37.828;2023-08-08T09:56:27;8.30;;;6.38;;
40635;SDS011;26642;55.766;37.828;2023-08-08T09:58:54;10.07;;;6.30;;
40635;SDS011;26642;55.766;37.828;2023-08-08T10:01:22;10.77;;;6.25;;
40635;SDS011;26642;55.766;37.828;2023-08-08T10:03:51;10.10;;;6.78;;
40635;SDS011;26642;55.766;37.828;2023-08-08T10:06:18;10.68;;;7.40;;
40635;SDS011;26642;55.766;37.828;2023-08-08T10:08:44;9.90;;;7.38;;
40635;SDS011;26642;55.766;37.828;2023-08-08T10:11:11;8.20;;;6.55;;
40635;SDS011;26642;55.766;37.828;2023-08-08T10:13:46;11.15;;;7.00;;
40635;SDS011;26642;55.766;37.828;2023-08-08T10:16:15;9.50;;;7.25;;
40635;SDS011;26642;55.766;37.828;2023-08-08T10:18:42;8.18;;;7.20;;
40635;SDS011;26642;55.766;37.828;2023-08-08T10:21:08;10.52;;;6.93;;
40635;SDS011;26642;55.766;37.828;2023-08-08T10:23:36;11.18;;;7.20;;
40635;SDS011;26642;55.766;37.828;2023-08-08T10:26:03;11.07;;;6.57;;
40635;SDS011;26642;55.766;37.828;2023-08-08T10:28:29;10.43;;;7.68;;
40635;SDS011;26642;55.766;37.828;2023-08-08T10:30:58;12.15;;;7.40;;
40635;SDS011;26642;55.766;37.828;2023-08-08T10:33:39;9.57;;;7.57;;
40635;SDS011;26642;55.766;37.828;2023-08-08T10:36:08;10.75;;;7.85;;
40635;SDS011;26642;55.766;37.828;2023-08-08T10:38:45;10.73;;;7.88;;
40635;SDS011;26642;55.766;37.828;2023-08-08T10:41:14;9.27;;;7.10;;
40635;SDS011;26642;55.766;37.828;2023-08-08T10:43:51;9.25;;;7.32;;
40635;SDS011;26642;55.766;37.828;2023-08-08T10:46:25;10.68;;;7.80;;
40635;SDS011;26642;55.766;37.828;2023-08-08T10:48:53;15.00;;;9.90;;
40635;SDS011;26642;55.766;37.828;2023-08-08T10:51:21;10.57;;;8.32;;
40635;SDS011;26642;55.766;37.828;2023-08-08T10:53:51;9.25;;;7.93;;
40635;SDS011;26642;55.766;37.828;2023-08-08T10:56:18;9.50;;;7.53;;
40635;SDS011;26642;55.766;37.828;2023-08-08T10:58:48;7.80;;;6.90;;
40635;SDS011;26642;55.766;37.828;2023-08-08T11:01:14;10.15;;;7.82;;
40635;SDS011;26642;55.766;37.828;2023-08-08T11:03:42;11.85;;;7.95;;
40635;SDS011;26642;55.766;37.828;2023-08-08T11:06:09;9.52;;;7.53;;
40635;SDS011;26642;55.766;37.828;2023-08-08T11:08:36;11.48;;;8.48;;
40635;SDS011;26642;55.766;37.828;2023-08-08T11:11:04;11.27;;;8.43;;
40635;SDS011;26642;55.766;37.828;2023-08-08T11:13:31;9.85;;;8.30;;
40635;SDS011;26642;55.766;37.828;2023-08-08T11:15:57;9.25;;;7.45;;
40635;SDS011;26642;55.766;37.828;2023-08-08T11:18:24;11.82;;;8.35;;
40635;SDS011;26642;55.766;37.828;2023-08-08T11:20:51;10.65;;;8.40;;
40635;SDS011;26642;55.766;37.828;2023-08-08T11:23:17;10.07;;;8.23;;
40635;SDS011;26642;55.766;37.828;2023-08-08T11:25:44;11.40;;;8.10;;
40635;SDS011;26642;55.766;37.828;2023-08-08T11:28:11;11.57;;;8.35;;
40635;SDS011;26642;55.766;37.828;2023-08-08T11:30:39;8.80;;;7.90;;
40635;SDS011;26642;55.766;37.828;2023-08-08T11:33:07;12.95;;;8.55;;
40635;SDS011;26642;55.766;37.828;2023-08-08T11:35:33;8.95;;;8.00;;
40635;SDS011;26642;55.766;37.828;2023-08-08T11:38:00;9.80;;;8.00;;
40635;SDS011;26642;55.766;37.828;2023-08-08T11:40:27;10.98;;;8.20;;
40635;SDS011;26642;55.766;37.828;2023-08-08T11:42:55;11.43;;;8.48;;
40635;SDS011;26642;55.766;37.828;2023-08-08T11:45:24;11.63;;;8.38;;
40635;SDS011;26642;55.766;37.828;2023-08-08T11:47:51;11.85;;;8.85;;
40635;SDS011;26642;55.766;37.828;2023-08-08T11:50:19;12.48;;;9.50;;
40635;SDS011;26642;55.766;37.828;2023-08-08T11:52:48;10.18;;;8.95;;
40635;SDS011;26642;55.766;37.828;2023-08-08T11:55:16;10.43;;;8.95;;
40635;SDS011;26642;55.766;37.828;2023-08-08T11:57:47;11.48;;;8.95;;
40635;SDS011;26642;55.766;37.828;2023-08-08T12:00:14;10.13;;;8.80;;
40635;SDS011;26642;55.766;37.828;2023-08-08T12:02:41;11.77;;;10.15;;
40635;SDS011;26642;55.766;37.828;2023-08-08T12:05:11;16.77;;;11.93;;
40635;SDS011;26642;55.766;37.828;2023-08-08T12:07:39;10.82;;;9.55;;
40635;SDS011;26642;55.766;37.828;2023-08-08T12:10:14;10.02;;;8.77;;
40635;SDS011;26642;55.766;37.828;2023-08-08T12:12:52;10.35;;;8.40;;
40635;SDS011;26642;55.766;37.828;2023-08-08T12:15:20;10.05;;;7.80;;
40635;SDS011;26642;55.766;37.828;2023-08-08T12:17:46;12.85;;;7.72;;
40635;SDS011;26642;55.766;37.828;2023-08-08T12:20:13;11.77;;;7.93;;
40635;SDS011;26642;55.766;37.828;2023-08-08T12:22:40;8.90;;;7.18;;
40635;SDS011;26642;55.766;37.828;2023-08-08T12:25:06;9.18;;;7.20;;
40635;SDS011;26642;55.766;37.828;2023-08-08T12:27:33;10.00;;;6.85;;
40635;SDS011;26642;55.766;37.828;2023-08-08T12:29:59;9.90;;;7.35;;
40635;SDS011;26642;55.766;37.828;2023-08-08T12:32:28;8.82;;;7.47;;
40635;SDS011;26642;55.766;37.828;2023-08-08T12:34:56;9.30;;;7.20;;
40635;SDS011;26642;55.766;37.828;2023-08-08T12:37:23;8.82;;;6.85;;
40635;SDS011;26642;55.766;37.828;2023-08-08T12:39:49;10.48;;;7.40;;
40635;SDS011;26642;55.766;37.828;2023-08-08T12:42:15;8.00;;;7.20;;
40635;SDS011;26642;55.766;37.828;2023-08-08T12:44:42;8.52;;;6.93;;
40635;SDS011;26642;55.766;37.828;2023-08-08T12:47:08;8.40;;;7.32;;
40635;SDS011;26642;55.766;37.828;2023-08-08T12:49:34;11.90;;;7.13;;
40635;SDS011;26642;55.766;37.828;2023-08-08T12:52:00;9.52;;;7.45;;
40635;SDS011;26642;55.766;37.828;2023-08-08T12:54:26;10.02;;;7.45;;
40635;SDS011;26642;55.766;37.828;2023-08-08T12:56:52;8.60;;;7.10;;
40635;SDS011;26642;55.766;37.828;2023-08-08T12:59:18;9.52;;;7.78;;
40635;SDS011;26642;55.766;37.828;2023-08-08T13:01:44;10.18;;;7.43;;
40635;SDS011;26642;55.766;37.828;2023-08-08T13:04:10;8.38;;;7.57;;
40635;SDS011;26642;55.766;37.828;2023-08-08T13:06:36;9.40;;;6.70;;
40635;SDS011;26642;55.766;37.828;2023-08-08T13:09:02;8.07;;;6.75;;
40635;SDS011;26642;55.766;37.828;2023-08-08T13:11:28;9.23;;;6.93;;
40635;SDS011;26642;55.766;37.828;2023-08-08T13:13:54;8.32;;;6.95;;
40635;SDS011;26642;55.766;37.828;2023-08-08T13:16:21;10.02;;;7.25;;
40635;SDS011;26642;55.766;37.828;2023-08-08T13:18:47;9.52;;;6.63;;
40635;SDS011;26642;55.766;37.828;2023-08-08T13:21:13;8.23;;;6.43;;
40635;SDS011;26642;55.766;37.828;2023-08-08T13:23:40;7.78;;;6.82;;
40635;SDS011;26642;55.766;37.828;2023-08-08T13:26:06;11.52;;;6.80;;
40635;SDS011;26642;55.766;37.828;2023-08-08T13:28:32;12.77;;;7.30;;
40635;SDS011;26642;55.766;37.828;2023-08-08T13:30:58;10.90;;;6.72;;
40635;SDS011;26642;55.766;37.828;2023-08-08T13:33:24;9.73;;;7.10;;
40635;SDS011;26642;55.766;37.828;2023-08-08T13:35:50;10.15;;;7.20;;
40635;SDS011;26642;55.766;37.828;2023-08-08T13:38:16;11.18;;;6.65;;
40635;SDS011;26642;55.766;37.828;2023-08-08T13:40:42;6.60;;;6.03;;
40635;SDS011;26642;55.766;37.828;2023-08-08T13:43:09;7.05;;;6.35;;
40635;SDS011;26642;55.766;37.828;2023-08-08T13:45:35;9.27;;;6.50;;
40635;SDS011;26642;55.766;37.828;2023-08-08T13:48:01;9.25;;;6.32;;
40635;SDS011;26642;55.766;37.828;2023-08-08T13:50:27;7.88;;;6.97;;
40635;SDS011;26642;55.766;37.828;2023-08-08T13:52:54;11.10;;;7.00;;
40635;SDS011;26642;55.766;37.828;2023-08-08T13:55:20;11.57;;;7.47;;
40635;SDS011;26642;55.766;37.828;2023-08-08T13:57:46;11.23;;;7.28;;
40635;SDS011;26642;55.766;37.828;2023-08-08T14:00:12;10.45;;;6.80;;
40635;SDS011;26642;55.766;37.828;2023-08-08T14:02:39;12.90;;;7.45;;
40635;SDS011;26642;55.766;37.828;2023-08-08T14:05:06;9.77;;;6.55;;
40635;SDS011;26642;55.766;37.828;2023-08-08T14:07:32;9.35;;;6.75;;
40635;SDS011;26642;55.766;37.828;2023-08-08T14:10:00;9.48;;;7.07;;
40635;SDS011;26642;55.766;37.828;2023-08-08T14:12:29;10.68;;;6.72;;
40635;SDS011;26642;55.766;37.828;2023-08-08T14:14:55;9.38;;;6.60;;
40635;SDS011;26642;55.766;37.828;2023-08-08T14:17:21;13.18;;;7.00;;
40635;SDS011;26642;55.766;37.828;2023-08-08T14:19:47;9.45;;;6.70;;
40635;SDS011;26642;55.766;37.828;2023-08-08T14:22:13;7.80;;;7.00;;
40635;SDS011;26642;55.766;37.828;2023-08-08T14:24:40;10.48;;;6.47;;
40635;SDS011;26642;55.766;37.828;2023-08-08T14:27:08;9.32;;;6.80;;
40635;SDS011;26642;55.766;37.828;2023-08-08T14:29:34;11.30;;;7.10;;
40635;SDS011;26642;55.766;37.828;2023-08-08T14:32:00;11.25;;;6.72;;